Bookmark and Share
Track history (hours):
 

Hakuhomaru

Last reported at 2014-Apr-23 06:33 UTC. Time now 2014-Apr-23 07:19 UTC.
Position N 34°40' E 135°15'.

Length 38 m; draft 3.3 m.

Type: Tug. MMSI: 431401584.

NotesDate/timePositionNaut miles runAvg speedWind from/ knotsBaromVisibWave heightAir tempDewpointWater temp
2014-Apr-23 06:33N 34°40' E 135°15'2 2.4
2014-Apr-23 05:34N 34°41' E 135°17'0 0.2
2014-Apr-23 04:34N 34°41' E 135°17'0 0.2
2014-Apr-23 03:34N 34°41' E 135°17'4 4.1
2014-Apr-23 02:32N 34°41' E 135°12'0 0.1
2014-Apr-23 01:33N 34°41' E 135°12'1 0.3
2014-Apr-22 23:33N 34°41' E 135°13'4 4.2
2014-Apr-22 22:33N 34°41' E 135°18'1 1.1
2014-Apr-22 21:33N 34°41' E 135°17'4 3.7
2014-Apr-22 20:33N 34°41' E 135°12'0 0.0
2014-Apr-22 09:33N 34°41' E 135°12'1111.0
2014-Apr-22 08:33N 34°39' E 135°25'1 1.3
2014-Apr-22 07:33N 34°39' E 135°24'8 8.3
2014-Apr-22 06:33N 34°41' E 135°14'1 1.5
2014-Apr-22 05:33N 34°41' E 135°12'0 0.0
2014-Apr-22 04:33N 34°41' E 135°12'0 0.0
2014-Apr-22 03:33N 34°41' E 135°12'0 0.0
2014-Apr-22 02:33N 34°41' E 135°12'0 0.0
2014-Apr-22 01:33N 34°41' E 135°12'1 1.4
2014-Apr-22 00:33N 34°40' E 135°14'1 1.3
2014-Apr-21 23:33N 34°40' E 135°15'3 2.7
2014-Apr-21 22:33N 34°41' E 135°12'1 0.1
2014-Apr-21 08:33N 34°41' E 135°14'2 1.5
2014-Apr-21 07:33N 34°41' E 135°12'0 0.3
2014-Apr-21 06:33N 34°41' E 135°12'0 0.0
2014-Apr-21 05:33N 34°41' E 135°12'0 0.0
2014-Apr-21 04:34N 34°41' E 135°12'0 0.0
2014-Apr-21 03:33N 34°41' E 135°12'0 0.0
2014-Apr-21 02:34N 34°41' E 135°12'2 2.5
2014-Apr-21 01:34N 34°41' E 135°15'2 1.7
2014-Apr-21 00:33N 34°41' E 135°17'3 3.3
2014-Apr-20 23:31N 34°40' E 135°13'1 0.8
2014-Apr-20 22:34N 34°40' E 135°14'1 1.3
2014-Apr-20 21:34N 34°39' E 135°15'3 2.9
2014-Apr-20 20:34N 34°41' E 135°12'0 0.0
2014-Apr-18 21:33N 34°41' E 135°12'2 2.3
2014-Apr-18 20:33N 34°40' E 135°15'0 0.0
2014-Apr-18 19:33N 34°40' E 135°15'0 0.0
2014-Apr-18 18:33N 34°40' E 135°15'0 0.0
2014-Apr-18 17:33N 34°40' E 135°15'0 0.0
2014-Apr-18 16:33N 34°40' E 135°15'0 0.2
2014-Apr-18 15:33N 34°40' E 135°15'0 0.2
2014-Apr-18 14:33N 34°40' E 135°15'0 0.0
2014-Apr-18 13:33N 34°40' E 135°15'0 0.0
2014-Apr-18 12:33N 34°40' E 135°15'0 0.4
2014-Apr-18 11:33N 34°40' E 135°15'0 0.4
2014-Apr-18 10:33N 34°40' E 135°15'0 0.0
2014-Apr-18 09:33N 34°40' E 135°15'0 0.0
2014-Apr-18 08:33N 34°40' E 135°15'0 0.0
2014-Apr-18 07:33N 34°40' E 135°15'1 1.5
2014-Apr-18 06:33N 34°41' E 135°15'2 2.1
2014-Apr-18 05:33N 34°41' E 135°12'0 0.0
2014-Apr-18 04:33N 34°41' E 135°12'0 0.0
2014-Apr-18 03:33N 34°41' E 135°12'0 0.0
2014-Apr-18 02:33N 34°41' E 135°12'0 0.0
2014-Apr-18 01:33N 34°41' E 135°12'0 0.0
2014-Apr-18 00:32N 34°41' E 135°12'5 4.8
2014-Apr-17 23:33N 34°42' E 135°18'2 2.0
2014-Apr-17 22:33N 34°40' E 135°18'2 2.1
2014-Apr-17 21:33N 34°42' E 135°17'4 4.1
2014-Apr-17 20:33N 34°41' E 135°12'0 0.0
2014-Apr-17 06:33N 34°41' E 135°12'0 0.0
2014-Apr-17 05:33N 34°41' E 135°12'0 0.0
2014-Apr-17 04:33N 34°41' E 135°12'0 0.0
2014-Apr-17 03:33N 34°41' E 135°12'0 0.0
2014-Apr-17 02:33N 34°41' E 135°12'0 0.0
2014-Apr-17 01:33N 34°41' E 135°12'2 2.4
2014-Apr-17 00:33N 34°42' E 135°15'2 2.4
2014-Apr-16 23:33N 34°41' E 135°12'0 0.0
2014-Apr-16 22:33N 34°41' E 135°12'0 0.0
2014-Apr-16 21:33N 34°41' E 135°12'0 0.0
2014-Apr-16 09:29N 34°41' E 135°12'2 2.6
2014-Apr-16 08:33N 34°39' E 135°15'1 0.6
2014-Apr-16 07:33N 34°39' E 135°14'3 2.6
2014-Apr-16 06:33N 34°41' E 135°12'0 0.0
2014-Apr-16 05:33N 34°41' E 135°12'0 0.0
2014-Apr-16 04:33N 34°41' E 135°12'0 0.0
2014-Apr-16 03:33N 34°41' E 135°12'0 0.0
2014-Apr-16 02:33N 34°41' E 135°12'0 0.0
2014-Apr-16 01:33N 34°41' E 135°12'0 0.0
2014-Apr-16 00:33N 34°41' E 135°12'4 3.9
2014-Apr-15 23:34N 34°41' E 135°17'1 0.5
2014-Apr-15 22:33N 34°41' E 135°18'4 4.3
2014-Apr-15 21:33N 34°41' E 135°12'0 0.0
2014-Apr-15 01:34N 34°41' E 135°12'1 0.2
2014-Apr-14 22:34N 34°41' E 135°13'2 2.0
2014-Apr-14 21:33N 34°42' E 135°15'2 1.8
2014-Apr-14 20:34N 34°40' E 135°15'0 0.4
2014-Apr-14 19:34N 34°40' E 135°15'2 2.0
2014-Apr-14 18:33N 34°41' E 135°12'0 0.0
2014-Apr-14 17:33N 34°41' E 135°12'0 0.0
2014-Apr-14 16:33N 34°41' E 135°12'0 0.0
2014-Apr-14 15:33N 34°41' E 135°12'2 2.3
2014-Apr-14 14:33N 34°39' E 135°14'1 1.5
2014-Apr-14 13:34N 34°40' E 135°15'2 0.9
2014-Apr-14 11:33N 34°42' E 135°14'1 0.5
2014-Apr-14 10:33N 34°41' E 135°14'2 2.0
2014-Apr-14 09:34N 34°42' E 135°17'2 1.6
2014-Apr-14 08:33N 34°41' E 135°18'1 1.4
2014-Apr-14 07:33N 34°42' E 135°17'0 0.0
2014-Apr-14 06:33N 34°42' E 135°17'2 2.1
2014-Apr-14 05:33N 34°40' E 135°15'2 0.1
2014-Apr-13 13:27N 34°41' E 135°12'0 0.4
2014-Apr-13 12:33N 34°41' E 135°12'0 0.3
2014-Apr-13 11:33N 34°41' E 135°12'0 0.0
2014-Apr-13 10:33N 34°41' E 135°12'0 0.0
2014-Apr-13 09:33N 34°41' E 135°12'0 0.2
2014-Apr-13 08:33N 34°40' E 135°12'4 4.4
2014-Apr-13 07:33N 34°41' E 135°17'4 4.3
2014-Apr-13 06:33N 34°41' E 135°12'  

Dump ship's entire track history

sailing weather and tide predictions

Hakuhomaru — JJ4011 — position and weather